createdAt,value
2017-11-04T00:00:58.856Z,8.70
2017-11-04T00:03:26.405Z,8.70
2017-11-04T00:05:53.960Z,8.70
2017-11-04T00:08:21.482Z,8.70
2017-11-04T00:10:49.807Z,8.70
2017-11-04T00:13:17.432Z,8.70
2017-11-04T00:15:45.014Z,8.70
2017-11-04T00:18:12.536Z,8.70
2017-11-04T00:20:40.063Z,8.70
2017-11-04T00:23:07.672Z,8.70
2017-11-04T00:25:35.191Z,8.70
2017-11-04T00:28:03.536Z,8.60
2017-11-04T00:30:31.864Z,8.60
2017-11-04T00:33:00.177Z,8.50
2017-11-04T00:35:27.689Z,8.50
2017-11-04T00:37:55.251Z,8.50
2017-11-04T00:40:22.789Z,8.50
2017-11-04T00:42:51.140Z,8.50
2017-11-04T00:45:18.690Z,8.50
2017-11-04T00:47:46.205Z,8.50
2017-11-04T00:50:13.711Z,8.50
2017-11-04T00:52:41.229Z,8.40
2017-11-04T00:55:08.735Z,8.40
2017-11-04T00:57:36.278Z,8.40
2017-11-04T01:00:03.780Z,8.40
2017-11-04T01:02:32.818Z,8.30
2017-11-04T01:05:00.378Z,8.30
2017-11-04T01:07:27.876Z,8.30
2017-11-04T01:09:55.396Z,8.30
2017-11-04T01:12:22.939Z,8.30
2017-11-04T01:14:50.435Z,8.20
2017-11-04T01:20:03.372Z,8.20
2017-11-04T01:22:30.902Z,8.20
2017-11-04T01:25:00.373Z,8.20
2017-11-04T01:27:27.925Z,8.20
2017-11-04T01:29:56.234Z,8.20
2017-11-04T01:35:23.701Z,8.20
2017-11-04T01:37:51.223Z,8.20
2017-11-04T01:40:19.613Z,8.20
2017-11-04T01:42:47.148Z,8.20
2017-11-04T01:45:30.817Z,8.20
2017-11-04T01:50:46.435Z,8.20
2017-11-04T01:53:16.277Z,8.20
2017-11-04T01:55:43.797Z,8.10
2017-11-04T01:58:11.326Z,8.10
2017-11-04T02:00:51.708Z,8.10
2017-11-04T02:12:59.365Z,8.10
2017-11-04T02:15:26.869Z,8.20
2017-11-04T02:17:55.206Z,8.20
2017-11-04T02:20:22.704Z,8.20
2017-11-04T02:22:50.979Z,8.20
2017-11-04T02:25:19.280Z,8.20
2017-11-04T02:27:46.826Z,8.20
2017-11-04T02:30:15.101Z,8.20
2017-11-04T02:32:42.641Z,8.20
2017-11-04T02:35:10.938Z,8.30
2017-11-04T02:37:38.454Z,8.30
2017-11-04T02:40:06.018Z,8.40
2017-11-04T02:42:33.531Z,8.50
2017-11-04T02:45:01.057Z,8.50
2017-11-04T02:47:29.313Z,8.60
2017-11-04T02:49:56.852Z,8.60
2017-11-04T02:52:24.388Z,8.60
2017-11-04T02:54:51.885Z,8.60
2017-11-04T02:57:19.399Z,8.60
2017-11-04T02:59:46.958Z,8.50
2017-11-04T03:02:14.489Z,8.50
2017-11-04T03:04:41.998Z,8.50
2017-11-04T03:07:09.538Z,8.50
2017-11-04T03:09:37.045Z,8.50
2017-11-04T03:12:05.357Z,8.50
2017-11-04T03:14:32.859Z,8.40
2017-11-04T03:17:00.398Z,8.40
2017-11-04T03:19:27.901Z,8.50
2017-11-04T03:21:55.443Z,8.50
2017-11-04T03:24:23.717Z,8.50
2017-11-04T03:26:52.011Z,8.50
2017-11-04T03:29:19.551Z,8.50
2017-11-04T03:31:47.823Z,8.50
2017-11-04T03:34:16.150Z,8.50
2017-11-04T03:36:44.432Z,8.50
2017-11-04T03:39:11.961Z,8.50
2017-11-04T03:41:39.503Z,8.50
2017-11-04T03:44:07.014Z,8.60
2017-11-04T03:46:34.530Z,8.60
2017-11-04T03:49:02.065Z,8.60
2017-11-04T03:51:30.343Z,8.60
2017-11-04T03:53:58.654Z,8.60
2017-11-04T03:56:26.179Z,8.50
2017-11-04T03:58:56.505Z,8.60
2017-11-04T04:01:24.048Z,8.60
2017-11-04T04:03:52.321Z,8.60
2017-11-04T04:06:20.594Z,8.60
2017-11-04T04:08:48.892Z,8.60
2017-11-04T04:11:16.428Z,8.60
2017-11-04T04:13:44.728Z,8.60
2017-11-04T04:16:12.234Z,8.60
2017-11-04T04:18:39.778Z,8.60
2017-11-04T04:21:07.303Z,8.60
2017-11-04T04:23:34.824Z,8.60
2017-11-04T04:26:02.384Z,8.60
2017-11-04T04:28:30.723Z,8.60
2017-11-04T04:30:58.252Z,8.60
2017-11-04T04:33:25.837Z,8.60
2017-11-04T04:35:53.430Z,8.60
2017-11-04T04:38:21.761Z,8.60
2017-11-04T04:40:49.332Z,8.60
2017-11-04T04:43:16.933Z,8.60
2017-11-04T04:45:44.482Z,8.70
2017-11-04T04:48:12.813Z,8.70
2017-11-04T04:50:40.386Z,8.70
2017-11-04T04:53:07.943Z,8.70
2017-11-04T04:55:35.504Z,8.70
2017-11-04T04:58:03.039Z,8.70
2017-11-04T05:00:30.540Z,8.70
2017-11-04T05:02:58.069Z,8.70
2017-11-04T05:05:25.586Z,8.70
2017-11-04T05:07:53.525Z,8.70
2017-11-04T05:10:21.038Z,8.80
2017-11-04T05:12:48.585Z,8.80
2017-11-04T05:15:16.096Z,8.80
2017-11-04T05:17:43.649Z,8.80
2017-11-04T05:20:11.180Z,8.90
2017-11-04T05:22:38.690Z,8.90
2017-11-04T05:25:06.237Z,8.90
2017-11-04T05:27:34.534Z,8.90
2017-11-04T05:30:02.076Z,8.90
2017-11-04T05:32:29.591Z,8.90
2017-11-04T05:34:57.140Z,8.90
2017-11-04T05:37:24.666Z,8.90
2017-11-04T05:39:52.182Z,8.90
2017-11-04T05:42:19.727Z,9.00
2017-11-04T05:44:47.244Z,8.90
2017-11-04T05:47:14.805Z,8.90
2017-11-04T05:49:42.313Z,8.90
2017-11-04T05:52:09.842Z,8.90
2017-11-04T05:54:37.621Z,8.90
2017-11-04T05:57:05.134Z,8.80
2017-11-04T05:59:32.649Z,8.80
2017-11-04T06:02:00.194Z,8.80
2017-11-04T06:04:27.756Z,8.80
2017-11-04T06:06:55.277Z,8.80
2017-11-04T06:09:22.847Z,8.70
2017-11-04T06:11:50.410Z,8.70
2017-11-04T06:14:17.923Z,8.70
2017-11-04T06:16:46.239Z,8.60
2017-11-04T06:19:13.752Z,8.60
2017-11-04T06:21:42.062Z,8.60
2017-11-04T06:24:09.657Z,8.60
2017-11-04T06:26:37.219Z,8.60
2017-11-04T06:29:05.534Z,8.60
2017-11-04T06:31:33.091Z,8.60
2017-11-04T06:34:00.590Z,8.60
2017-11-04T06:36:28.110Z,8.60
2017-11-04T06:38:55.663Z,8.70
2017-11-04T06:41:23.172Z,8.70
2017-11-04T06:43:50.742Z,8.70
2017-11-04T06:46:18.271Z,8.70
2017-11-04T06:48:45.804Z,8.70
2017-11-04T06:51:13.354Z,8.70
2017-11-04T06:53:40.922Z,8.80
2017-11-04T06:56:08.460Z,8.80
2017-11-04T06:58:36.033Z,8.80
2017-11-04T07:01:03.582Z,8.80
2017-11-04T07:03:31.154Z,8.80
2017-11-04T07:05:58.706Z,8.90
2017-11-04T07:08:26.996Z,8.90
2017-11-04T07:10:55.201Z,8.90
2017-11-04T07:13:22.771Z,8.90
2017-11-04T07:15:50.323Z,8.90
2017-11-04T07:18:17.853Z,9.00
2017-11-04T07:20:45.428Z,9.00
2017-11-04T07:23:12.975Z,9.10
2017-11-04T07:25:40.518Z,9.10
2017-11-04T07:28:08.070Z,9.10
2017-11-04T07:30:35.627Z,9.10
2017-11-04T07:33:03.160Z,9.20
2017-11-04T07:35:30.871Z,9.30
2017-11-04T07:37:58.376Z,9.30
2017-11-04T07:40:25.940Z,9.40
2017-11-04T07:42:53.477Z,9.50
2017-11-04T07:45:21.760Z,9.60
2017-11-04T07:47:49.328Z,9.60
2017-11-04T07:50:16.837Z,9.70
2017-11-04T07:52:44.350Z,9.80
2017-11-04T07:55:11.898Z,9.80
2017-11-04T07:57:39.399Z,9.90
2017-11-04T08:00:06.963Z,9.90
2017-11-04T08:02:34.488Z,10.00
2017-11-04T08:05:02.025Z,10.00
2017-11-04T08:07:29.592Z,10.10
2017-11-04T08:09:57.133Z,10.10
2017-11-04T08:12:25.460Z,10.20
2017-11-04T08:14:52.987Z,10.10
2017-11-04T08:17:20.553Z,10.20
2017-11-04T08:19:48.864Z,10.30
2017-11-04T08:22:16.387Z,10.20
2017-11-04T08:24:43.947Z,10.30
2017-11-04T08:27:11.455Z,10.30
2017-11-04T08:29:38.963Z,10.40
2017-11-04T08:32:06.521Z,10.40
2017-11-04T08:34:34.063Z,10.40
2017-11-04T08:37:01.588Z,10.50
2017-11-04T08:39:29.954Z,10.60
2017-11-04T08:41:58.260Z,10.60
2017-11-04T08:44:26.529Z,10.60
2017-11-04T08:46:54.854Z,10.60
2017-11-04T08:49:22.362Z,10.60
2017-11-04T08:51:49.918Z,10.70
2017-11-04T08:54:18.206Z,10.70
2017-11-04T08:56:45.751Z,10.70
2017-11-04T08:59:13.338Z,10.70
2017-11-04T09:01:40.854Z,10.70
2017-11-04T09:04:09.190Z,10.90
2017-11-04T09:06:36.703Z,10.80
2017-11-04T09:09:07.084Z,10.90
2017-11-04T09:11:34.609Z,11.00
2017-11-04T09:14:02.113Z,11.00
2017-11-04T09:16:29.656Z,11.00
2017-11-04T09:18:57.183Z,11.10
2017-11-04T09:21:27.321Z,11.10
2017-11-04T09:23:54.875Z,11.20
2017-11-04T09:26:22.414Z,11.20
2017-11-04T09:28:49.954Z,11.30
2017-11-04T09:31:17.465Z,11.30
2017-11-04T09:33:45.007Z,11.40
2017-11-04T09:36:12.548Z,11.50
2017-11-04T09:38:40.066Z,11.50
2017-11-04T09:41:07.623Z,11.60
2017-11-04T09:43:35.908Z,11.70
2017-11-04T09:46:04.189Z,11.80
2017-11-04T09:48:32.491Z,11.80
2017-11-04T09:50:59.992Z,11.80
2017-11-04T09:53:27.568Z,11.80
2017-11-04T09:55:55.909Z,12.00
2017-11-04T09:58:23.422Z,11.90
2017-11-04T10:00:50.938Z,12.00
2017-11-04T10:03:18.492Z,12.10
2017-11-04T10:05:46.004Z,12.30
2017-11-04T10:08:13.555Z,12.40
2017-11-04T10:10:41.133Z,12.50
2017-11-04T10:13:08.647Z,12.60
2017-11-04T10:15:36.928Z,12.80
2017-11-04T10:18:05.234Z,12.90
2017-11-04T10:20:32.798Z,12.90
2017-11-04T10:23:00.420Z,12.90
2017-11-04T10:25:28.705Z,13.00
2017-11-04T10:27:56.331Z,13.00
2017-11-04T10:30:24.629Z,13.20
2017-11-04T10:32:52.157Z,13.10
2017-11-04T10:35:19.759Z,13.20
2017-11-04T10:37:47.309Z,13.30
2017-11-04T10:40:14.875Z,13.40
2017-11-04T10:42:42.478Z,13.40
2017-11-04T10:45:10.078Z,13.50
2017-11-04T10:47:37.634Z,13.50
2017-11-04T10:50:05.942Z,13.60
2017-11-04T10:52:33.567Z,13.60
2017-11-04T10:55:01.947Z,13.50
2017-11-04T10:57:30.957Z,13.50
2017-11-04T10:59:58.575Z,13.50
2017-11-04T11:02:26.150Z,13.50
2017-11-04T11:04:53.742Z,13.40
2017-11-04T11:07:21.301Z,13.40
2017-11-04T11:09:48.831Z,13.30
2017-11-04T11:12:17.156Z,13.30
2017-11-04T11:14:44.711Z,13.30
2017-11-04T11:17:12.283Z,13.30
2017-11-04T11:19:39.815Z,13.20
2017-11-04T11:22:07.327Z,13.20
2017-11-04T11:24:35.646Z,13.20
2017-11-04T11:27:09.138Z,13.20
2017-11-04T11:29:38.386Z,13.20
2017-11-04T11:32:05.903Z,13.20
2017-11-04T11:34:33.810Z,13.20
2017-11-04T11:37:01.346Z,13.20
2017-11-04T11:39:28.924Z,13.20
2017-11-04T11:41:56.450Z,13.20
2017-11-04T11:44:23.984Z,13.20
2017-11-04T11:46:51.513Z,13.20
2017-11-04T11:49:26.567Z,13.40
2017-11-04T11:51:54.245Z,13.40
2017-11-04T11:54:21.824Z,13.60
2017-11-04T11:56:50.100Z,13.90
2017-11-04T11:59:17.695Z,14.20
2017-11-04T12:01:45.222Z,14.40
2017-11-04T12:04:12.775Z,14.50
2017-11-04T12:06:40.404Z,14.70
2017-11-04T12:09:08.099Z,14.70
2017-11-04T12:11:37.463Z,14.70
2017-11-04T12:14:04.987Z,14.80
2017-11-04T12:16:32.578Z,15.00
2017-11-04T12:19:01.461Z,15.20
2017-11-04T12:21:31.475Z,15.40
2017-11-04T12:24:00.294Z,15.60
2017-11-04T12:26:31.634Z,15.70
2017-11-04T12:28:59.222Z,15.70
2017-11-04T12:31:26.781Z,15.80
2017-11-04T12:33:54.304Z,15.90
2017-11-04T12:36:22.184Z,16.00
2017-11-04T12:38:49.792Z,16.00
2017-11-04T12:41:17.319Z,16.10
2017-11-04T12:43:44.860Z,16.10
2017-11-04T12:46:12.425Z,16.00
2017-11-04T12:48:39.957Z,16.00
2017-11-04T12:51:07.481Z,16.00
2017-11-04T12:53:35.051Z,16.00
2017-11-04T12:56:02.956Z,16.00
2017-11-04T12:58:31.118Z,15.90
2017-11-04T13:00:58.636Z,15.90
2017-11-04T13:03:26.161Z,15.80
2017-11-04T13:05:53.722Z,15.80
2017-11-04T13:08:21.233Z,15.80
2017-11-04T13:10:48.764Z,15.70
2017-11-04T13:13:17.038Z,15.50
2017-11-04T13:15:45.346Z,15.40
2017-11-04T13:18:12.867Z,15.30
2017-11-04T13:20:40.455Z,15.20
2017-11-04T13:23:08.402Z,15.00
2017-11-04T13:25:36.698Z,15.10
2017-11-04T13:28:04.978Z,15.20
2017-11-04T13:30:32.578Z,15.10
2017-11-04T13:33:00.137Z,15.20
2017-11-04T13:35:27.953Z,15.20
2017-11-04T13:37:56.168Z,15.20
2017-11-04T13:40:24.102Z,15.20
2017-11-04T13:42:52.599Z,15.20
2017-11-04T13:45:20.670Z,15.20
2017-11-04T13:47:48.917Z,15.20
2017-11-04T13:50:17.488Z,15.20
2017-11-04T13:52:45.466Z,15.20
2017-11-04T13:55:13.362Z,15.20
2017-11-04T13:57:40.975Z,15.10
2017-11-04T14:00:08.675Z,15.00
2017-11-04T14:02:36.639Z,15.00
2017-11-04T14:05:04.595Z,15.00
2017-11-04T14:07:32.540Z,14.90
2017-11-04T14:10:00.911Z,14.90
2017-11-04T14:12:29.180Z,14.90
2017-11-04T14:14:56.735Z,14.90
2017-11-04T14:17:25.056Z,14.80
2017-11-04T14:19:52.617Z,14.70
2017-11-04T14:22:20.131Z,14.70
2017-11-04T14:24:48.406Z,14.60
2017-11-04T14:27:16.712Z,14.50
2017-11-04T14:29:45.712Z,14.50
2017-11-04T14:32:13.452Z,14.40
2017-11-04T14:34:41.392Z,14.30
2017-11-04T14:37:09.776Z,14.20
2017-11-04T14:39:38.850Z,14.10
2017-11-04T14:42:11.997Z,14.00
2017-11-04T14:44:40.294Z,14.00
2017-11-04T14:47:13.433Z,14.00
2017-11-04T14:49:41.323Z,13.90
2017-11-04T14:52:09.065Z,13.80
2017-11-04T14:54:37.652Z,13.80
2017-11-04T14:57:05.340Z,13.80
2017-11-04T14:59:35.755Z,13.70
2017-11-04T15:02:11.660Z,13.70
2017-11-04T15:04:39.312Z,13.70
2017-11-04T15:07:06.892Z,13.60
2017-11-04T15:09:35.324Z,13.60
2017-11-04T15:12:02.852Z,13.60
2017-11-04T15:14:30.422Z,13.50
2017-11-04T15:16:58.787Z,13.50
2017-11-04T15:19:26.474Z,13.50
2017-11-04T15:21:54.210Z,13.50
2017-11-04T15:24:21.758Z,13.50
2017-11-04T15:26:49.825Z,13.40
2017-11-04T15:29:18.216Z,13.40
2017-11-04T15:31:46.195Z,13.40
2017-11-04T15:34:14.109Z,13.40
2017-11-04T15:36:42.430Z,13.40
2017-11-04T15:39:10.822Z,13.40
2017-11-04T15:41:38.941Z,13.40
2017-11-04T15:44:08.949Z,13.30
2017-11-04T15:49:10.732Z,13.30
2017-11-04T15:51:39.327Z,13.30
2017-11-04T15:54:06.830Z,13.20
2017-11-04T15:56:34.349Z,13.30
2017-11-04T15:59:02.666Z,13.20
2017-11-04T16:01:30.186Z,13.20
2017-11-04T16:03:58.463Z,13.10
2017-11-04T16:06:26.808Z,13.10
2017-11-04T16:08:54.328Z,13.10
2017-11-04T16:11:21.846Z,13.10
2017-11-04T16:13:50.156Z,13.10
2017-11-04T16:16:28.639Z,13.10
2017-11-04T16:18:56.920Z,13.00
2017-11-04T16:21:24.463Z,13.00
2017-11-04T16:23:52.764Z,13.00
2017-11-04T16:26:20.312Z,13.00
2017-11-04T16:28:48.589Z,13.00
2017-11-04T16:31:16.131Z,13.00
2017-11-04T16:33:44.416Z,13.00
2017-11-04T16:36:12.022Z,13.00
2017-11-04T16:38:39.635Z,13.00
2017-11-04T16:41:07.204Z,13.00
2017-11-04T16:43:34.846Z,13.00
2017-11-04T16:46:03.235Z,13.00
2017-11-04T16:48:30.869Z,12.90
2017-11-04T16:50:58.391Z,13.00
2017-11-04T16:53:25.970Z,12.90
2017-11-04T16:55:53.511Z,12.90
2017-11-04T16:58:21.062Z,12.90
2017-11-04T17:00:48.599Z,12.90
2017-11-04T17:03:16.242Z,12.90
2017-11-04T17:05:43.802Z,12.90
2017-11-04T17:08:11.499Z,12.90
2017-11-04T17:10:40.838Z,12.90
2017-11-04T17:13:08.421Z,12.90
2017-11-04T17:15:36.108Z,12.90
2017-11-04T17:18:03.733Z,12.90
2017-11-04T17:20:31.396Z,12.90
2017-11-04T17:22:59.003Z,12.90
2017-11-04T17:25:26.550Z,12.90
2017-11-04T17:27:54.077Z,12.80
2017-11-04T17:30:21.663Z,12.80
2017-11-04T17:32:49.181Z,12.80
2017-11-04T17:35:27.489Z,12.80
2017-11-04T17:38:01.642Z,12.70
2017-11-04T17:40:29.204Z,12.70
2017-11-04T17:42:56.746Z,12.70
2017-11-04T17:45:28.334Z,12.70
2017-11-04T17:47:58.374Z,12.70
2017-11-04T17:50:26.240Z,12.70
2017-11-04T17:52:54.868Z,12.70
2017-11-04T17:55:22.559Z,12.70
2017-11-04T17:57:52.686Z,12.70
2017-11-04T18:00:23.107Z,12.70
2017-11-04T18:02:56.016Z,12.70
2017-11-04T18:05:25.162Z,12.70
2017-11-04T18:07:55.570Z,12.60
2017-11-04T18:10:26.065Z,12.60
2017-11-04T18:12:53.666Z,12.60
2017-11-04T18:15:21.184Z,12.60
2017-11-04T18:17:49.487Z,12.60
2017-11-04T18:20:17.023Z,12.60
2017-11-04T18:22:45.327Z,12.60
2017-11-04T18:25:12.880Z,12.60
2017-11-04T18:27:40.792Z,12.60
2017-11-04T18:30:08.322Z,12.50
2017-11-04T18:32:35.867Z,12.50
2017-11-04T18:35:03.492Z,12.50
2017-11-04T18:37:31.774Z,12.40
2017-11-04T18:39:59.494Z,12.40
2017-11-04T18:42:29.228Z,12.30
2017-11-04T18:44:56.770Z,12.30
2017-11-04T18:47:25.445Z,12.20
2017-11-04T18:49:52.973Z,12.10
2017-11-04T18:52:20.478Z,12.10
2017-11-04T18:54:48.022Z,12.10
2017-11-04T18:57:16.297Z,12.00
2017-11-04T18:59:44.595Z,11.90
2017-11-04T19:02:12.129Z,11.90
2017-11-04T19:04:40.414Z,11.80
2017-11-04T19:07:08.029Z,11.80
2017-11-04T19:09:35.583Z,11.70
2017-11-04T19:12:03.119Z,11.70
2017-11-04T19:14:30.767Z,11.60
2017-11-04T19:16:58.364Z,11.60
2017-11-04T19:19:25.904Z,11.50
2017-11-04T19:21:53.478Z,11.40
2017-11-04T19:24:21.054Z,11.40
2017-11-04T19:26:49.378Z,11.30
2017-11-04T19:29:16.970Z,11.30
2017-11-04T19:31:44.520Z,11.30
2017-11-04T19:34:12.127Z,11.30
2017-11-04T19:36:39.678Z,11.20
2017-11-04T19:39:08.010Z,11.10
2017-11-04T19:41:35.557Z,11.10
2017-11-04T19:44:03.654Z,11.10
2017-11-04T19:46:31.186Z,11.00
2017-11-04T19:48:58.757Z,11.00
2017-11-04T19:51:26.378Z,10.90
2017-11-04T19:53:54.021Z,10.90
2017-11-04T19:56:21.760Z,10.90
2017-11-04T19:58:49.310Z,10.80
2017-11-04T20:01:16.839Z,10.80
2017-11-04T20:03:44.459Z,10.70
2017-11-04T20:06:12.024Z,10.70
2017-11-04T20:08:39.748Z,10.70
2017-11-04T20:11:07.361Z,10.70
2017-11-04T20:13:34.963Z,10.70
2017-11-04T20:16:02.549Z,10.60
2017-11-04T20:18:30.889Z,10.60
2017-11-04T20:20:58.531Z,10.60
2017-11-04T20:23:26.125Z,10.50
2017-11-04T20:25:53.726Z,10.50
2017-11-04T20:28:21.226Z,10.50
2017-11-04T20:30:48.876Z,10.40
2017-11-04T20:33:16.418Z,10.40
2017-11-04T20:35:44.141Z,10.40
2017-11-04T20:38:13.012Z,10.30
2017-11-04T20:40:41.303Z,10.30
2017-11-04T20:43:09.720Z,10.30
2017-11-04T20:45:37.282Z,10.30
2017-11-04T20:48:04.866Z,10.30
2017-11-04T20:50:32.485Z,10.30
2017-11-04T20:53:00.073Z,10.30
2017-11-04T20:55:27.609Z,10.30
2017-11-04T20:57:55.237Z,10.20
2017-11-04T21:00:22.746Z,10.20
2017-11-04T21:02:50.457Z,10.20
2017-11-04T21:05:18.793Z,10.20
2017-11-04T21:07:46.377Z,10.20
2017-11-04T21:10:15.221Z,10.20
2017-11-04T21:12:43.071Z,10.10
2017-11-04T21:15:10.595Z,10.10
2017-11-04T21:17:39.228Z,10.10
2017-11-04T21:20:06.739Z,10.10
2017-11-04T21:22:35.046Z,10.00
2017-11-04T21:25:03.368Z,10.10
2017-11-04T21:27:30.879Z,10.10
2017-11-04T21:29:58.442Z,10.10
2017-11-04T21:32:25.972Z,10.00
2017-11-04T21:34:54.283Z,10.00
2017-11-04T21:37:21.836Z,10.00
2017-11-04T21:39:49.375Z,10.00
2017-11-04T21:42:16.940Z,10.00
2017-11-04T21:44:44.474Z,10.00
2017-11-04T21:47:12.075Z,10.00
2017-11-04T21:49:39.586Z,10.00
2017-11-04T21:52:07.141Z,10.10
2017-11-04T21:54:35.427Z,10.10
2017-11-04T21:57:03.313Z,10.10
2017-11-04T21:59:30.896Z,10.20
2017-11-04T22:01:58.467Z,10.30
2017-11-04T22:04:25.994Z,10.30
2017-11-04T22:06:53.564Z,10.30
2017-11-04T22:09:21.085Z,10.30
2017-11-04T22:11:48.659Z,10.30
2017-11-04T22:14:16.181Z,10.30
2017-11-04T22:16:44.527Z,10.40
2017-11-04T22:19:12.130Z,10.40
2017-11-04T22:21:39.660Z,10.40
2017-11-04T22:24:07.172Z,10.40
2017-11-04T22:26:34.859Z,10.40
2017-11-04T22:29:02.424Z,10.40
2017-11-04T22:31:29.945Z,10.40
2017-11-04T22:33:57.489Z,10.40
2017-11-04T22:36:24.998Z,10.50
2017-11-04T22:38:52.504Z,10.50
2017-11-04T22:41:20.299Z,10.50
2017-11-04T22:43:47.866Z,10.50
2017-11-04T22:46:15.440Z,10.60
2017-11-04T22:48:42.943Z,10.60
2017-11-04T22:51:11.729Z,10.60
2017-11-04T22:53:39.361Z,10.60
2017-11-04T22:56:07.645Z,10.60
2017-11-04T22:58:35.917Z,10.60
2017-11-04T23:01:04.270Z,10.70
2017-11-04T23:03:33.589Z,10.60
2017-11-04T23:06:01.968Z,10.70
2017-11-04T23:08:30.690Z,10.70
2017-11-04T23:10:58.211Z,10.70
2017-11-04T23:13:26.523Z,10.70
2017-11-04T23:15:54.042Z,10.70
2017-11-04T23:18:22.946Z,10.70
2017-11-04T23:20:50.702Z,10.70
2017-11-04T23:23:18.991Z,10.70
2017-11-04T23:25:46.525Z,10.70
2017-11-04T23:28:14.805Z,10.70
2017-11-04T23:30:43.077Z,10.70
2017-11-04T23:33:11.365Z,10.70
2017-11-04T23:35:38.890Z,10.70
2017-11-04T23:38:06.418Z,10.70
2017-11-04T23:40:33.973Z,10.70
2017-11-04T23:43:02.836Z,10.70
2017-11-04T23:45:30.436Z,10.70
2017-11-04T23:47:58.987Z,10.70
2017-11-04T23:50:26.626Z,10.70
2017-11-04T23:53:01.581Z,10.70
2017-11-04T23:55:29.224Z,10.70
2017-11-04T23:57:56.777Z,10.70
